Semaine O'tomnale - Régionale Sprint Quimperlé centre ville (29) - D

Date : 01/11/2012
Distance : 1,000 km

Place Nom Licence Catégorie Club Temps min/km CN à J-60 Points Différence Nouveau CN
1 POIROT Delphine 15979 D18 8809LO 0:12:30 12'30 6256 4484 -1772 6220
2 DROIN Solène 17925 D16 4201RA 0:12:30 12'30 5152 4484 -668 5739
3 HABERKORN Chloé 10396 D16 2105BO 0:13:20 13'20 5675 4204 -1471 5652
4 HANAUER Florence 20408 D14 6806AL 0:13:24 13'24 4307 4183 -124 4245
5 LOTERIE Laurine 7045 D20 5907NO 0:13:28 13'28 5669 4162 -1507 5715
6 VASILYEVA Véronika 25923 D16 5402LO 0:13:45 13'45 2762 4077 +1315 3832
7 CLOUARD Lucile 8551 D18 7807IF 0:13:47 13'47 6124 4067 -2057 6195
8 BERRARD Anna 19762 D16 2607RA 0:13:52 13'52 4423 4042 -381 4702
9 BORNARD Julie 9402 D16 7305RA 0:13:56 13'56 4755 4023 -732 4633
10 KORCHAK Emilie 13639 D14 6806AL 0:14:06 14'06 3614 3975 +361 3728
11 BEAUVIR Maëlle 12709 D16 3502BR 0:14:10 14'10 4940 3957 -983 5263
12 VALETTE Marion 10430 D16 6913RA 0:14:13 14'13 3868 3943 +75 4127
13 VUILLEMIN Pauline 17171 D14 2508FC 0:14:23 14'23 3871 3897 +26 4344
14 GIRARD Lucille 19689 D16 3705CE 0:14:28 14'28 5057 3875 -1182 5003
15 DELENNE Camilla 13800 D16 1307PR 0:14:44 14'44 4132 3804 -328 4548
16 BONDIVENNE Perrine 8914 D16 6408AQ 0:14:44 14'44 4916 3804 -1112 5129
17 DEJARDIN Emilie 10863 D18 1307PR 0:14:50 14'50 4281 3779 -502 4041
18 DUDOIGNON Chloé 18089 D14 2605RA 0:14:56 14'56 3509 3753 +244 3781
19 ALAFORT Lucie 22475 D18 5116CA 0:15:04 15'04 3365 3720 +355 3946
20 BASSET Juliette 12398 D14 6911RA 0:15:08 15'08 3709 3704 -5 3910
21 PICAZO Marie 16555 D16 8405PR 0:15:11 15'11 4159 3692 -467 4260
22 STARKE Paula 26505 D16 6913RA 0:15:16 15'16 3672 4259
23 DOUSSET Mathilde 20731 D14 4709AQ 0:15:18 15'18 2958 3664 +706 3211
24 ANGLADE Lucile 21188 D16 5604BR 0:15:23 15'23 3832 3644 -188 3997
25 MOLINIER Caroline 6487 D16 9105IF 0:15:28 15'28 4246 3624 -622 4277
26 RIVOLLIER Isaline 22451 D16 4201RA 0:15:34 15'34 4296 3601 -695 4148
27 GIRARD Clarisse 22476 D14 2508FC 0:16:12 16'12 3076 3460 +384 3218
28 VUITTON Marie 18842 D14 6911RA 0:16:15 16'15 3758 3449 -309 3944
29 ALLE Capucine 25922 D16 5402LO 0:16:16 16'16 1257 3446 +2189 2508
30 CRETE Camille 18828 D18 6008PI 0:16:19 16'19 3728 3435 -293 4084
31 GUILLOT Jeanne 20364 D16 7004FC 0:16:24 16'24 3219 3418 +199 3229
32 CRETE Juliette 18829 D16 6008PI 0:16:29 16'29 3141 3401 +260 3717
33 KASTENSSON Hedda 20616 D14 0615AZ 0:16:29 16'29 3024 3401 +377 3216
34 LUTHRINGER Coline 10091 D16 8809LO 0:16:33 16'33 4381 3387 -994 4381
35 SOUAN Cécile 26423 D16 7707IF 0:16:34 16'34 2051 3383 +1332 2924
36 BUCAMP Noémie 25200 D16 6008PI 0:16:38 16'38 2055 3370 +1315 3100
37 LEVESY Salomé 23127 D14 3810RA 0:16:39 16'39 2609 3366 +757 2690
38 VERDIN Alix 15276 D18 7109BO 0:16:42 16'42 3791 3356 -435 3584
39 CONIEL Laura 14887 D14 5604BR 0:16:45 16'45 3113 3346 +233 3438
40 MORLON Louise 7788 D18 5702LO 0:16:48 16'48 4031 3336 -695 3963
41 BESTEL Sandra 10758 D16 9105IF 0:16:54 16'54 3840 3317 -523 3864
42 DELAPORTE Léa 20067 D16 5116CA 0:16:54 16'54 3241 3317 +76 3673
43 DELENNE Joanna 17030 D14 1307PR 0:16:54 16'54 2799 3317 +518 3229
44 DENAIX Lou 7711 D20 7403RA 0:16:57 16'57 5509 3307 -2202 5527
45 ELIAS Pauline 16137 D16 1307PR 0:17:03 17'03 3756 3288 -468 4003
46 DODIER Orianne 10485 D18 8405PR 0:17:27 17'27 4275 3212 -1063 4269
47 GONNEAUD Perrine 11385 D18 7109BO 0:18:01 18'01 3312 3111 -201 3433
48 DEMESSANCE Annaik 25595 D18 6008PI 0:18:05 18'05 2647 3100 +453 3273
49 SERPE Milena 24816 D14 0207PI 0:18:09 18'09 1781 3088 +1307 2803
50 KASTENSSON Ellen 20484 D18 0615AZ 0:18:11 18'11 4231 3083 -1148 4199
51 JEANNERET Julie 20160 D16 7109BO 0:18:12 18'12 2196 3080 +884 2696
52 FIGUIERE Lucile 10087 D16 7109BO 0:18:13 18'13 2713 3077 +364 3141
53 BASSET Fiona 23384 D16 6911RA 0:18:21 18'21 4275 3055 -1220 4528
54 GREBEL Louise 12587 D14 7305RA 0:18:24 18'24 2350 3046 +696 2274
55 FOL Loreline 16393 D16 3105MP 0:18:28 18'28 4263 3035 -1228 4326
56 DUDOUT Malaurine 24516 D16 2704NM 0:18:29 18'29 2541 3033 +492 3532
57 DASILVA Auriane 12758 D16 7707IF 0:18:31 18'31 2538 3027 +489 2852
58 GUINOT Marion 15018 D16 2108BO 0:18:31 18'31 3262 3027 -235 3868
59 BELLE Clémence 24444 D14 6205NO 0:18:45 18'45 2469 2989 +520 3015
60 CHABANCE Lucile 23077 D14 4201RA 0:18:57 18'57 2958 2372
61 DESCOURVIERES Perrine 25550 D16 7407RA 0:19:03 19'03 1928 2942 +1014 2355
62 DUVAL Manon 25002 D14 0207PI 0:19:05 19'05 2012 2937 +925 2646
63 VOLPATO Suzelle 18968 D14 4709AQ 0:19:14 19'14 2709 2914 +205 2840
64 COMMERE Justine 23511 D14 6008PI 0:19:23 19'23 2275 2892 +617 2545
65 ROUX Angéle 25238 D16 4201RA 0:19:23 19'23 2892 1694
66 DUDOUT Loane 25953 D14 2704NM 0:20:02 20'02 1777 2798 +1021 2812
67 VANOVERBERGHE Camille 21323 D18 6208NO 0:20:02 20'02 4617 2798 -1819 4693
68 VANOVERBERGHE Mathilde 22238 D14 6208NO 0:20:38 20'38 2179 2717 +538 2425
69 GRENEY Diane 25277 D14 6804AL 0:20:41 20'41 2127 2710 +583 2515
70 GRESSIER Léa 24242 D14 6208NO 0:20:48 20'48 1307 2695 +1388 2263
71 MOREL Fanny 25556 D16 9502IF 0:21:19 21'19 1838 2629 +791 2280
72 BULLIER Alisson 23427 D16 0207PI 0:21:25 21'25 2590 2617 +27 2920
73 BASSET Noëllie 24039 D14 6911RA 0:22:23 22'23 2016 2504 +488 2089
74 DUFOUR Marie 26623 D16 7407RA 0:22:24 22'24 2502 2099
75 PERREARD-GARIN Soraya 25343 D14 7407RA 0:22:54 22'54 1894 2448 +554 2163
76 MORIN Laura 23391 D18 2208BR 0:23:11 23'11 2266 2418 +152 2796
77 DUPONT Capucine 26535 D14 0207PI 0:24:22 24'22 0 2300 2074
78 MOUGENOT LEA 25662 D16 6503MP 0:25:46 25'46 2175 1942
79 GARAT Frédérique 25929 D21 5909NO 0:25:51 25'51 2168 1998
80 GUENIN Justine 16949 D14 5116CA 0:26:15 26'15 2414 2135 -279 2625
81 FIGARD Cécile 26475 D16 7707IF 0:26:18 26'18 0 2131 1858
82 DIDIER Marion 19566 D14 7305RA 0:27:19 27'19 2660 2052 -608 2901
83 DELCUSE Julie 23595 D14 6205NO 0:27:22 27'22 2512 2048 -464 2862
84 DELVA Lou 26620 D16 7407RA 0:28:42 28'42 1953 2167
85 PEROUCHET Rachel 26410 D14 8607PC 0:36:30 36'30 1536 1424
HUMMEL-AZAIS Margaux 18432 D18 7403RA abandon None 5955 0 5909
MORIN Lucie 23393 D16 2208BR abandon None 1549 0 1549
PETER-JAN Lucile 19276 D16 3705CE pm None 4539 0 4678
BEYLS Mathilde 19269 D14 0615AZ pm None 2713 0 3005
LABROCHE Claire 26570 D14 0207PI disqualifié None 0 0 1481